TAP93L LPPT-LPMA
Flight info
| Callsign | TAP93L |
|---|---|
| Flight time | 1h 37m |
| Altitude | 35000 |
| Route | ULVOT DCT GALPA DCT RAKUN |
| Aircraft | A320/M-SDE3FGHIJ1RWXYZ/LB1 |
Departure
| Time | 2026-05-05 08:21 |
|---|---|
| Airport | Lisbon Humberto Delgado Airport (LPPT) |
Arrival
| Time | 2026-05-05 09:58 |
|---|---|
| Airport | Cristiano Ronaldo International Airport (LPMA) |
| Time | Latitude | Longitude | Altitude | Speed | Heading |
|---|---|---|---|---|---|
| 2026-05-05 07:55 | 38.77116 | -9.13111 | 333 ft | 0 kts | 78° |
| 2026-05-05 08:13 | 38.77113 | -9.13130 | 315 ft | 2 kts | 78° |
| 2026-05-05 08:13 | 38.77109 | -9.13151 | 347 ft | 2 kts | 78° |
| 2026-05-05 08:13 | 38.77107 | -9.13172 | 333 ft | 2 kts | 99° |
| 2026-05-05 08:13 | 38.77112 | -9.13192 | 335 ft | 2 kts | 131° |
| 2026-05-05 08:14 | 38.77122 | -9.13203 | 334 ft | 0 kts | 163° |
| 2026-05-05 08:16 | 38.77090 | -9.13194 | 334 ft | 11 kts | 169° |
| 2026-05-05 08:16 | 38.77002 | -9.13172 | 338 ft | 12 kts | 168° |
| 2026-05-05 08:17 | 38.76923 | -9.13150 | 336 ft | 11 kts | 167° |
| 2026-05-05 08:17 | 38.76855 | -9.13131 | 338 ft | 9 kts | 167° |
| 2026-05-05 08:17 | 38.76790 | -9.13130 | 339 ft | 10 kts | 213° |
| 2026-05-05 08:17 | 38.76766 | -9.13253 | 341 ft | 17 kts | 259° |
| 2026-05-05 08:18 | 38.76727 | -9.13395 | 345 ft | 17 kts | 227° |
| 2026-05-05 08:18 | 38.76655 | -9.13486 | 346 ft | 13 kts | 250° |
| 2026-05-05 08:18 | 38.76632 | -9.13610 | 345 ft | 17 kts | 256° |
| 2026-05-05 08:18 | 38.76606 | -9.13783 | 346 ft | 21 kts | 260° |
| 2026-05-05 08:19 | 38.76574 | -9.13973 | 346 ft | 21 kts | 251° |
| 2026-05-05 08:19 | 38.76497 | -9.14133 | 355 ft | 22 kts | 257° |
| 2026-05-05 08:19 | 38.76520 | -9.14259 | 338 ft | 14 kts | 291° |
| 2026-05-05 08:19 | 38.76533 | -9.14301 | 337 ft | 1 kts | 292° |
| 2026-05-05 08:20 | 38.76538 | -9.14316 | 335 ft | 3 kts | 294° |
| 2026-05-05 08:20 | 38.76553 | -9.14357 | 334 ft | 9 kts | 294° |
| 2026-05-05 08:20 | 38.76601 | -9.14411 | 336 ft | 10 kts | 6° |
| 2026-05-05 08:20 | 38.76688 | -9.14366 | 335 ft | 24 kts | 22° |
| 2026-05-05 08:21 | 38.77060 | -9.14168 | 354 ft | 89 kts | 22° |
| 2026-05-05 08:21 | 38.77807 | -9.13768 | 366 ft | 142 kts | 22° |
| 2026-05-05 08:21 | 38.78830 | -9.13218 | 557 ft | 168 kts | 20° |
| 2026-05-05 08:21 | 38.79943 | -9.12582 | 1054 ft | 182 kts | 24° |
| 2026-05-05 08:22 | 38.80730 | -9.12111 | 1493 ft | 185 kts | 23° |
| 2026-05-05 08:22 | 38.81894 | -9.11365 | 2116 ft | 192 kts | 27° |
| 2026-05-05 08:22 | 38.83126 | -9.10473 | 2407 ft | 216 kts | 27° |
| 2026-05-05 08:22 | 38.84498 | -9.09445 | 2803 ft | 240 kts | 28° |
| 2026-05-05 08:23 | 38.85970 | -9.08322 | 3510 ft | 249 kts | 28° |
| 2026-05-05 08:23 | 38.87352 | -9.06951 | 4371 ft | 257 kts | 47° |
| 2026-05-05 08:23 | 38.88170 | -9.04914 | 5207 ft | 268 kts | 74° |
| 2026-05-05 08:23 | 38.88140 | -9.02501 | 6039 ft | 279 kts | 104° |
| 2026-05-05 08:24 | 38.87152 | -9.00351 | 6839 ft | 288 kts | 135° |
| 2026-05-05 08:24 | 38.85400 | -8.99104 | 7578 ft | 294 kts | 168° |
| 2026-05-05 08:24 | 38.83378 | -8.99180 | 8301 ft | 294 kts | 201° |
| 2026-05-05 08:24 | 38.81587 | -9.00408 | 9073 ft | 293 kts | 217° |
| 2026-05-05 08:25 | 38.79875 | -9.01846 | 9884 ft | 296 kts | 218° |
| 2026-05-05 08:25 | 38.78146 | -9.03323 | 10481 ft | 306 kts | 218° |
| 2026-05-05 08:25 | 38.76315 | -9.04902 | 10676 ft | 329 kts | 218° |
| 2026-05-05 08:25 | 38.74375 | -9.06567 | 11147 ft | 340 kts | 218° |
| 2026-05-05 08:26 | 38.72392 | -9.08253 | 11841 ft | 344 kts | 218° |
| 2026-05-05 08:26 | 38.70386 | -9.09942 | 12566 ft | 347 kts | 218° |
| 2026-05-05 08:26 | 38.68362 | -9.11636 | 13288 ft | 349 kts | 218° |
| 2026-05-05 08:26 | 38.66319 | -9.13339 | 14018 ft | 352 kts | 218° |
| 2026-05-05 08:27 | 38.64260 | -9.15056 | 14655 ft | 354 kts | 218° |
| 2026-05-05 08:27 | 38.62188 | -9.16787 | 15277 ft | 357 kts | 218° |
| 2026-05-05 08:27 | 38.60102 | -9.18529 | 15897 ft | 359 kts | 218° |
| 2026-05-05 08:27 | 38.58003 | -9.20283 | 16514 ft | 362 kts | 219° |
| 2026-05-05 08:28 | 38.55886 | -9.22052 | 17132 ft | 365 kts | 219° |
| 2026-05-05 08:28 | 38.53760 | -9.23834 | 17739 ft | 367 kts | 219° |
| 2026-05-05 08:28 | 38.51617 | -9.25630 | 18334 ft | 369 kts | 219° |
| 2026-05-05 08:28 | 38.49461 | -9.27432 | 18875 ft | 372 kts | 219° |
| 2026-05-05 08:29 | 38.47290 | -9.29241 | 19416 ft | 374 kts | 219° |
| 2026-05-05 08:29 | 38.45105 | -9.31058 | 19955 ft | 376 kts | 219° |
| 2026-05-05 08:29 | 38.42910 | -9.32885 | 20495 ft | 378 kts | 219° |
| 2026-05-05 08:30 | 38.38484 | -9.36570 | 21565 ft | 382 kts | 219° |
| 2026-05-05 08:30 | 38.36253 | -9.38426 | 22095 ft | 384 kts | 219° |
| 2026-05-05 08:30 | 38.34102 | -9.40429 | 22612 ft | 380 kts | 229° |
| 2026-05-05 08:30 | 38.32330 | -9.42912 | 23104 ft | 379 kts | 234° |
| 2026-05-05 08:31 | 38.30595 | -9.45455 | 23603 ft | 381 kts | 234° |
| 2026-05-05 08:31 | 38.28852 | -9.48018 | 23983 ft | 385 kts | 233° |
| 2026-05-05 08:31 | 38.27095 | -9.50599 | 24364 ft | 387 kts | 233° |
| 2026-05-05 08:31 | 38.25333 | -9.53184 | 24800 ft | 386 kts | 233° |
| 2026-05-05 08:32 | 38.23571 | -9.55763 | 25247 ft | 387 kts | 233° |
| 2026-05-05 08:32 | 38.21806 | -9.58347 | 25659 ft | 387 kts | 234° |
| 2026-05-05 08:32 | 38.20040 | -9.60936 | 26057 ft | 388 kts | 234° |
| 2026-05-05 08:32 | 38.18270 | -9.63530 | 26443 ft | 389 kts | 234° |
| 2026-05-05 08:33 | 38.16492 | -9.66128 | 26826 ft | 390 kts | 234° |
| 2026-05-05 08:33 | 38.14735 | -9.68695 | 27199 ft | 391 kts | 234° |
| 2026-05-05 08:33 | 38.12923 | -9.71339 | 27576 ft | 392 kts | 234° |
| 2026-05-05 08:33 | 38.11132 | -9.73951 | 27940 ft | 393 kts | 234° |
| 2026-05-05 08:34 | 38.09333 | -9.76574 | 28296 ft | 394 kts | 234° |
| 2026-05-05 08:34 | 38.07531 | -9.79201 | 28645 ft | 395 kts | 234° |
| 2026-05-05 08:34 | 38.05724 | -9.81828 | 28984 ft | 396 kts | 234° |
| 2026-05-05 08:34 | 38.03929 | -9.84428 | 29299 ft | 398 kts | 234° |
| 2026-05-05 08:35 | 38.02075 | -9.87110 | 29579 ft | 400 kts | 234° |
| 2026-05-05 08:35 | 38.00239 | -9.89764 | 29864 ft | 401 kts | 234° |
| 2026-05-05 08:35 | 37.98397 | -9.92427 | 30172 ft | 402 kts | 234° |
| 2026-05-05 08:35 | 37.96548 | -9.95098 | 30423 ft | 403 kts | 234° |
| 2026-05-05 08:36 | 37.94695 | -9.97768 | 30662 ft | 404 kts | 234° |
| 2026-05-05 08:36 | 37.92862 | -10.00413 | 30889 ft | 405 kts | 234° |
| 2026-05-05 08:36 | 37.91001 | -10.03103 | 31114 ft | 406 kts | 234° |
| 2026-05-05 08:36 | 37.89145 | -10.05786 | 31421 ft | 405 kts | 234° |
| 2026-05-05 08:37 | 37.87293 | -10.08463 | 31751 ft | 403 kts | 234° |
| 2026-05-05 08:37 | 37.85452 | -10.11123 | 32076 ft | 401 kts | 234° |
| 2026-05-05 08:37 | 37.83611 | -10.13775 | 32398 ft | 400 kts | 234° |
| 2026-05-05 08:37 | 37.81780 | -10.16408 | 32715 ft | 398 kts | 234° |
| 2026-05-05 08:38 | 37.79955 | -10.19031 | 33036 ft | 397 kts | 234° |
| 2026-05-05 08:38 | 37.78132 | -10.21648 | 33332 ft | 396 kts | 233° |
| 2026-05-05 08:38 | 37.76314 | -10.24254 | 33612 ft | 395 kts | 233° |
| 2026-05-05 08:38 | 37.74495 | -10.26855 | 33910 ft | 394 kts | 233° |
| 2026-05-05 08:39 | 37.72680 | -10.29449 | 34130 ft | 395 kts | 233° |
| 2026-05-05 08:39 | 37.70859 | -10.32054 | 34336 ft | 395 kts | 233° |
| 2026-05-05 08:39 | 37.69045 | -10.34654 | 34549 ft | 395 kts | 233° |
| 2026-05-05 08:39 | 37.67225 | -10.37262 | 34756 ft | 396 kts | 233° |
| 2026-05-05 08:40 | 37.65402 | -10.39866 | 34959 ft | 396 kts | 233° |
| 2026-05-05 08:40 | 37.63576 | -10.42469 | 35115 ft | 397 kts | 233° |
| 2026-05-05 08:40 | 37.61754 | -10.45061 | 35158 ft | 393 kts | 233° |
| 2026-05-05 08:41 | 37.58132 | -10.50204 | 35163 ft | 391 kts | 233° |
| 2026-05-05 08:41 | 37.54526 | -10.55329 | 35163 ft | 391 kts | 233° |
| 2026-05-05 08:42 | 37.50919 | -10.60455 | 35162 ft | 391 kts | 233° |
| 2026-05-05 08:42 | 37.47307 | -10.65586 | 35164 ft | 391 kts | 233° |
| 2026-05-05 08:43 | 37.43716 | -10.70671 | 35137 ft | 392 kts | 232° |
| 2026-05-05 08:43 | 37.40084 | -10.75790 | 35147 ft | 392 kts | 232° |
| 2026-05-05 08:44 | 37.36449 | -10.80905 | 35151 ft | 392 kts | 232° |
| 2026-05-05 08:44 | 37.32813 | -10.86022 | 35156 ft | 392 kts | 232° |
| 2026-05-05 08:45 | 37.29175 | -10.91131 | 35160 ft | 392 kts | 232° |
| 2026-05-05 08:45 | 37.25537 | -10.96235 | 35159 ft | 392 kts | 232° |
| 2026-05-05 08:46 | 37.21896 | -11.01340 | 35155 ft | 393 kts | 232° |
| 2026-05-05 08:46 | 37.18245 | -11.06445 | 35129 ft | 394 kts | 231° |
| 2026-05-05 08:47 | 37.14581 | -11.11564 | 35131 ft | 395 kts | 231° |
| 2026-05-05 08:47 | 37.10911 | -11.16699 | 35145 ft | 396 kts | 231° |
| 2026-05-05 08:48 | 37.07216 | -11.21853 | 35177 ft | 402 kts | 231° |
| 2026-05-05 08:48 | 37.03426 | -11.27118 | 35174 ft | 412 kts | 231° |
| 2026-05-05 08:49 | 36.99549 | -11.32483 | 35160 ft | 419 kts | 231° |
| 2026-05-05 08:49 | 36.95620 | -11.37923 | 35171 ft | 423 kts | 231° |
| 2026-05-05 08:50 | 36.91671 | -11.43382 | 35157 ft | 424 kts | 231° |
| 2026-05-05 08:50 | 36.87702 | -11.48860 | 35171 ft | 426 kts | 231° |
| 2026-05-05 08:51 | 36.83728 | -11.54353 | 35168 ft | 426 kts | 231° |
| 2026-05-05 08:51 | 36.79773 | -11.59797 | 35169 ft | 426 kts | 231° |
| 2026-05-05 08:52 | 36.75788 | -11.65277 | 35170 ft | 426 kts | 231° |
| 2026-05-05 08:52 | 36.71800 | -11.70747 | 35170 ft | 426 kts | 231° |
| 2026-05-05 08:53 | 36.67810 | -11.76207 | 35172 ft | 426 kts | 231° |
| 2026-05-05 08:53 | 36.63817 | -11.81668 | 35159 ft | 426 kts | 231° |
| 2026-05-05 08:54 | 36.59825 | -11.87110 | 35176 ft | 425 kts | 231° |
| 2026-05-05 08:54 | 36.55837 | -11.92545 | 35184 ft | 425 kts | 231° |
| 2026-05-05 08:55 | 36.51853 | -11.97970 | 35184 ft | 425 kts | 231° |
| 2026-05-05 08:55 | 36.47862 | -12.03387 | 35183 ft | 424 kts | 230° |
| 2026-05-05 08:56 | 36.43876 | -12.08792 | 35182 ft | 424 kts | 230° |
| 2026-05-05 08:56 | 36.39889 | -12.14189 | 35178 ft | 424 kts | 230° |
| 2026-05-05 08:57 | 36.35901 | -12.19583 | 35155 ft | 424 kts | 230° |
| 2026-05-05 08:57 | 36.31919 | -12.24957 | 35177 ft | 423 kts | 230° |
| 2026-05-05 08:58 | 36.27942 | -12.30322 | 35181 ft | 422 kts | 230° |
| 2026-05-05 08:58 | 36.23965 | -12.35676 | 35185 ft | 422 kts | 230° |
| 2026-05-05 08:59 | 36.19985 | -12.41015 | 35191 ft | 422 kts | 230° |
| 2026-05-05 08:59 | 36.15999 | -12.46353 | 35182 ft | 422 kts | 230° |
| 2026-05-05 09:00 | 36.12007 | -12.51690 | 35183 ft | 423 kts | 230° |
| 2026-05-05 09:00 | 36.08012 | -12.57027 | 35160 ft | 423 kts | 230° |
| 2026-05-05 09:01 | 36.04012 | -12.62369 | 35172 ft | 423 kts | 230° |
| 2026-05-05 09:01 | 36.00000 | -12.67703 | 35179 ft | 424 kts | 230° |
| 2026-05-05 09:02 | 35.95995 | -12.73040 | 35183 ft | 424 kts | 230° |
| 2026-05-05 09:02 | 35.91987 | -12.78375 | 35184 ft | 424 kts | 230° |
| 2026-05-05 09:03 | 35.87968 | -12.83694 | 35181 ft | 424 kts | 230° |
| 2026-05-05 09:03 | 35.83942 | -12.89007 | 35180 ft | 424 kts | 230° |
| 2026-05-05 09:04 | 35.79922 | -12.94318 | 35172 ft | 424 kts | 230° |
| 2026-05-05 09:04 | 35.75904 | -12.99635 | 35160 ft | 424 kts | 230° |
| 2026-05-05 09:05 | 35.71871 | -13.04942 | 35162 ft | 425 kts | 230° |
| 2026-05-05 09:05 | 35.67832 | -13.10253 | 35165 ft | 425 kts | 230° |
| 2026-05-05 09:06 | 35.63795 | -13.15570 | 35163 ft | 426 kts | 230° |
| 2026-05-05 09:06 | 35.59745 | -13.20883 | 35167 ft | 426 kts | 230° |
| 2026-05-05 09:07 | 35.55688 | -13.26185 | 35172 ft | 426 kts | 230° |
| 2026-05-05 09:07 | 35.52313 | -13.30591 | 35173 ft | 426 kts | 230° |
| 2026-05-05 09:08 | 35.47596 | -13.36752 | 35158 ft | 427 kts | 229° |
| 2026-05-05 09:08 | 35.43526 | -13.42058 | 35160 ft | 427 kts | 229° |
| 2026-05-05 09:09 | 35.39449 | -13.47358 | 35161 ft | 427 kts | 229° |
| 2026-05-05 09:09 | 35.36057 | -13.51757 | 35159 ft | 428 kts | 229° |
| 2026-05-05 09:10 | 35.31970 | -13.57062 | 35162 ft | 428 kts | 229° |
| 2026-05-05 09:10 | 35.27879 | -13.62366 | 35161 ft | 429 kts | 229° |
| 2026-05-05 09:11 | 35.23780 | -13.67672 | 35164 ft | 429 kts | 229° |
| 2026-05-05 09:11 | 35.19673 | -13.72965 | 35166 ft | 429 kts | 229° |
| 2026-05-05 09:12 | 35.15557 | -13.78257 | 35171 ft | 430 kts | 229° |
| 2026-05-05 09:12 | 35.11442 | -13.83550 | 35172 ft | 430 kts | 229° |
| 2026-05-05 09:13 | 35.07329 | -13.88844 | 35176 ft | 430 kts | 229° |
| 2026-05-05 09:13 | 35.03205 | -13.94128 | 35168 ft | 430 kts | 229° |
| 2026-05-05 09:14 | 34.99081 | -13.99401 | 35173 ft | 429 kts | 229° |
| 2026-05-05 09:14 | 34.94964 | -14.04680 | 35171 ft | 429 kts | 229° |
| 2026-05-05 09:15 | 34.90837 | -14.09944 | 35149 ft | 430 kts | 228° |
| 2026-05-05 09:15 | 34.86693 | -14.15227 | 35150 ft | 432 kts | 228° |
| 2026-05-05 09:16 | 34.82537 | -14.20517 | 35150 ft | 432 kts | 228° |
| 2026-05-05 09:16 | 34.78379 | -14.25804 | 35163 ft | 432 kts | 229° |
| 2026-05-05 09:17 | 34.74212 | -14.31084 | 35168 ft | 433 kts | 229° |
| 2026-05-05 09:17 | 34.70041 | -14.36366 | 35172 ft | 433 kts | 229° |
| 2026-05-05 09:18 | 34.65872 | -14.41650 | 35175 ft | 433 kts | 229° |
| 2026-05-05 09:18 | 34.61725 | -14.46891 | 35158 ft | 434 kts | 228° |
| 2026-05-05 09:19 | 34.57531 | -14.52172 | 35160 ft | 435 kts | 228° |
| 2026-05-05 09:19 | 34.53331 | -14.57460 | 35163 ft | 435 kts | 228° |
| 2026-05-05 09:20 | 34.49129 | -14.62743 | 35171 ft | 435 kts | 228° |
| 2026-05-05 09:20 | 34.44920 | -14.68026 | 35172 ft | 435 kts | 228° |
| 2026-05-05 09:21 | 34.40709 | -14.73299 | 35174 ft | 436 kts | 228° |
| 2026-05-05 09:21 | 34.36496 | -14.78567 | 35186 ft | 436 kts | 228° |
| 2026-05-05 09:22 | 34.32282 | -14.83832 | 35163 ft | 435 kts | 228° |
| 2026-05-05 09:22 | 34.28069 | -14.89100 | 35164 ft | 436 kts | 228° |
| 2026-05-05 09:23 | 34.23844 | -14.94358 | 35171 ft | 436 kts | 227° |
| 2026-05-05 09:23 | 34.19608 | -14.99611 | 35161 ft | 436 kts | 227° |
| 2026-05-05 09:24 | 34.15375 | -15.04869 | 35169 ft | 437 kts | 227° |
| 2026-05-05 09:24 | 34.11141 | -15.10125 | 35164 ft | 437 kts | 227° |
| 2026-05-05 09:25 | 34.06900 | -15.15379 | 35119 ft | 437 kts | 227° |
| 2026-05-05 09:25 | 34.04783 | -15.17995 | 34784 ft | 434 kts | 227° |
| 2026-05-05 09:25 | 34.02681 | -15.20592 | 34530 ft | 433 kts | 227° |
| 2026-05-05 09:25 | 34.00576 | -15.23191 | 34208 ft | 433 kts | 227° |
| 2026-05-05 09:26 | 33.98481 | -15.25778 | 33630 ft | 428 kts | 227° |
| 2026-05-05 09:26 | 33.96416 | -15.28325 | 33097 ft | 423 kts | 227° |
| 2026-05-05 09:26 | 33.94373 | -15.30838 | 32595 ft | 418 kts | 227° |
| 2026-05-05 09:26 | 33.92348 | -15.33326 | 32084 ft | 413 kts | 226° |
| 2026-05-05 09:27 | 33.90376 | -15.35751 | 31590 ft | 409 kts | 226° |
| 2026-05-05 09:27 | 33.88397 | -15.38184 | 31099 ft | 404 kts | 226° |
| 2026-05-05 09:27 | 33.86443 | -15.40585 | 30613 ft | 400 kts | 226° |
| 2026-05-05 09:27 | 33.84506 | -15.42966 | 30121 ft | 396 kts | 226° |
| 2026-05-05 09:28 | 33.82588 | -15.45318 | 29615 ft | 391 kts | 226° |
| 2026-05-05 09:28 | 33.80699 | -15.47633 | 29163 ft | 385 kts | 226° |
| 2026-05-05 09:28 | 33.78845 | -15.49906 | 28798 ft | 379 kts | 226° |
| 2026-05-05 09:28 | 33.77002 | -15.52162 | 28356 ft | 375 kts | 226° |
| 2026-05-05 09:29 | 33.75183 | -15.54387 | 27943 ft | 372 kts | 226° |
| 2026-05-05 09:29 | 33.73386 | -15.56583 | 27512 ft | 370 kts | 226° |
| 2026-05-05 09:29 | 33.71576 | -15.58796 | 27115 ft | 370 kts | 226° |
| 2026-05-05 09:29 | 33.69773 | -15.60995 | 26706 ft | 368 kts | 226° |
| 2026-05-05 09:30 | 33.67984 | -15.63175 | 26295 ft | 366 kts | 226° |
| 2026-05-05 09:30 | 33.66202 | -15.65346 | 25878 ft | 364 kts | 227° |
| 2026-05-05 09:30 | 33.64441 | -15.67492 | 25472 ft | 362 kts | 227° |
| 2026-05-05 09:30 | 33.62677 | -15.69642 | 25031 ft | 360 kts | 227° |
| 2026-05-05 09:31 | 33.60914 | -15.71788 | 24588 ft | 360 kts | 227° |
| 2026-05-05 09:31 | 33.59194 | -15.73884 | 24174 ft | 359 kts | 227° |
| 2026-05-05 09:31 | 33.57439 | -15.76015 | 23704 ft | 357 kts | 227° |
| 2026-05-05 09:31 | 33.55701 | -15.78122 | 23201 ft | 354 kts | 227° |
| 2026-05-05 09:32 | 33.53962 | -15.80202 | 22725 ft | 352 kts | 226° |
| 2026-05-05 09:32 | 33.52222 | -15.82250 | 22264 ft | 349 kts | 226° |
| 2026-05-05 09:32 | 33.50494 | -15.84268 | 21808 ft | 347 kts | 226° |
| 2026-05-05 09:32 | 33.48761 | -15.86288 | 21344 ft | 345 kts | 226° |
| 2026-05-05 09:33 | 33.47058 | -15.88275 | 20898 ft | 343 kts | 226° |
| 2026-05-05 09:33 | 33.45345 | -15.90279 | 20450 ft | 341 kts | 226° |
| 2026-05-05 09:33 | 33.43652 | -15.92260 | 20004 ft | 340 kts | 227° |
| 2026-05-05 09:33 | 33.41963 | -15.94232 | 19572 ft | 338 kts | 226° |
| 2026-05-05 09:34 | 33.40287 | -15.96189 | 19139 ft | 337 kts | 226° |
| 2026-05-05 09:34 | 33.38613 | -15.98144 | 18707 ft | 335 kts | 227° |
| 2026-05-05 09:34 | 33.36946 | -16.00089 | 18244 ft | 334 kts | 228° |
| 2026-05-05 09:34 | 33.35287 | -16.02023 | 17805 ft | 331 kts | 226° |
| 2026-05-05 09:35 | 33.33647 | -16.03935 | 17389 ft | 328 kts | 226° |
| 2026-05-05 09:35 | 33.30407 | -16.07707 | 16572 ft | 322 kts | 226° |
| 2026-05-05 09:35 | 33.28806 | -16.09572 | 16167 ft | 322 kts | 225° |
| 2026-05-05 09:36 | 33.27196 | -16.11449 | 15757 ft | 325 kts | 225° |
| 2026-05-05 09:36 | 33.25561 | -16.13349 | 15344 ft | 331 kts | 226° |
| 2026-05-05 09:36 | 33.23900 | -16.15279 | 14950 ft | 334 kts | 226° |
| 2026-05-05 09:36 | 33.22236 | -16.17214 | 14514 ft | 332 kts | 226° |
| 2026-05-05 09:37 | 33.20618 | -16.19095 | 14051 ft | 319 kts | 225° |
| 2026-05-05 09:37 | 33.19064 | -16.20897 | 13684 ft | 306 kts | 225° |
| 2026-05-05 09:37 | 33.17541 | -16.22665 | 13289 ft | 303 kts | 225° |
| 2026-05-05 09:37 | 33.16039 | -16.24408 | 12907 ft | 300 kts | 225° |
| 2026-05-05 09:38 | 33.14551 | -16.26131 | 12527 ft | 297 kts | 225° |
| 2026-05-05 09:38 | 33.13072 | -16.27844 | 12142 ft | 295 kts | 224° |
| 2026-05-05 09:38 | 33.11624 | -16.29521 | 11783 ft | 285 kts | 224° |
| 2026-05-05 09:38 | 33.10205 | -16.31163 | 11406 ft | 283 kts | 225° |
| 2026-05-05 09:39 | 33.08816 | -16.32772 | 11033 ft | 282 kts | 224° |
| 2026-05-05 09:39 | 33.07426 | -16.34381 | 10662 ft | 281 kts | 225° |
| 2026-05-05 09:39 | 33.06028 | -16.36005 | 10291 ft | 280 kts | 223° |
| 2026-05-05 09:39 | 33.04632 | -16.37619 | 9908 ft | 279 kts | 223° |
| 2026-05-05 09:40 | 33.03243 | -16.39224 | 9513 ft | 277 kts | 223° |
| 2026-05-05 09:40 | 33.01864 | -16.40815 | 9118 ft | 274 kts | 223° |
| 2026-05-05 09:40 | 33.00502 | -16.42385 | 8722 ft | 271 kts | 223° |
| 2026-05-05 09:40 | 32.99145 | -16.43945 | 8359 ft | 275 kts | 221° |
| 2026-05-05 09:41 | 32.97744 | -16.45561 | 8049 ft | 282 kts | 222° |
| 2026-05-05 09:41 | 32.96324 | -16.47196 | 7725 ft | 282 kts | 223° |
| 2026-05-05 09:41 | 32.94917 | -16.48808 | 7461 ft | 279 kts | 219° |
| 2026-05-05 09:41 | 32.93527 | -16.50399 | 7192 ft | 277 kts | 223° |
| 2026-05-05 09:42 | 32.92138 | -16.51977 | 6835 ft | 275 kts | 221° |
| 2026-05-05 09:42 | 32.90732 | -16.53507 | 6420 ft | 273 kts | 220° |
| 2026-05-05 09:42 | 32.89311 | -16.55011 | 5971 ft | 273 kts | 220° |
| 2026-05-05 09:42 | 32.87917 | -16.56483 | 5689 ft | 264 kts | 220° |
| 2026-05-05 09:43 | 32.86544 | -16.57935 | 5236 ft | 260 kts | 220° |
| 2026-05-05 09:43 | 32.85211 | -16.59302 | 5006 ft | 245 kts | 212° |
| 2026-05-05 09:43 | 32.83819 | -16.60451 | 4514 ft | 245 kts | 210° |
| 2026-05-05 09:43 | 32.82427 | -16.61596 | 4051 ft | 242 kts | 213° |
| 2026-05-05 09:44 | 32.81060 | -16.62725 | 3526 ft | 233 kts | 213° |
| 2026-05-05 09:44 | 32.79794 | -16.63775 | 3259 ft | 213 kts | 213° |
| 2026-05-05 09:44 | 32.78591 | -16.64775 | 3131 ft | 210 kts | 213° |
| 2026-05-05 09:44 | 32.77390 | -16.65770 | 3037 ft | 209 kts | 213° |
| 2026-05-05 09:45 | 32.76224 | -16.66735 | 2811 ft | 197 kts | 214° |
| 2026-05-05 09:45 | 32.75120 | -16.67647 | 2567 ft | 190 kts | 213° |
| 2026-05-05 09:45 | 32.74077 | -16.68509 | 2287 ft | 174 kts | 214° |
| 2026-05-05 09:45 | 32.73133 | -16.69290 | 2105 ft | 156 kts | 213° |
| 2026-05-05 09:46 | 32.72269 | -16.70003 | 1902 ft | 149 kts | 212° |
| 2026-05-05 09:46 | 32.71421 | -16.70701 | 1703 ft | 148 kts | 211° |
| 2026-05-05 09:46 | 32.70580 | -16.71393 | 1506 ft | 147 kts | 211° |
| 2026-05-05 09:46 | 32.69747 | -16.72083 | 1335 ft | 145 kts | 211° |
| 2026-05-05 09:47 | 32.68905 | -16.72778 | 1139 ft | 147 kts | 212° |
| 2026-05-05 09:47 | 32.68060 | -16.73474 | 1005 ft | 148 kts | 213° |
| 2026-05-05 09:47 | 32.67197 | -16.74164 | 934 ft | 151 kts | 212° |
| 2026-05-05 09:47 | 32.66333 | -16.74865 | 934 ft | 149 kts | 213° |
| 2026-05-05 09:48 | 32.65505 | -16.75606 | 933 ft | 151 kts | 220° |
| 2026-05-05 09:48 | 32.64615 | -16.76480 | 1076 ft | 183 kts | 218° |
| 2026-05-05 09:48 | 32.63505 | -16.77514 | 1263 ft | 213 kts | 209° |
| 2026-05-05 09:48 | 32.62160 | -16.78266 | 1426 ft | 219 kts | 200° |
| 2026-05-05 09:49 | 32.60703 | -16.78792 | 1655 ft | 219 kts | 193° |
| 2026-05-05 09:49 | 32.59215 | -16.79227 | 1850 ft | 221 kts | 191° |
| 2026-05-05 09:49 | 32.57711 | -16.79647 | 2061 ft | 223 kts | 191° |
| 2026-05-05 09:49 | 32.56206 | -16.80066 | 2268 ft | 224 kts | 190° |
| 2026-05-05 09:50 | 32.54700 | -16.80484 | 2477 ft | 223 kts | 192° |
| 2026-05-05 09:50 | 32.53198 | -16.80902 | 2689 ft | 219 kts | 194° |
| 2026-05-05 09:50 | 32.51730 | -16.81315 | 2876 ft | 214 kts | 193° |
| 2026-05-05 09:50 | 32.50272 | -16.81727 | 2994 ft | 216 kts | 194° |
| 2026-05-05 09:51 | 32.48810 | -16.82139 | 3016 ft | 216 kts | 194° |
| 2026-05-05 09:51 | 32.47335 | -16.82558 | 3024 ft | 218 kts | 194° |
| 2026-05-05 09:51 | 32.45861 | -16.82976 | 3017 ft | 217 kts | 194° |
| 2026-05-05 09:51 | 32.44369 | -16.83123 | 3015 ft | 217 kts | 173° |
| 2026-05-05 09:52 | 32.42983 | -16.82463 | 3020 ft | 219 kts | 142° |
| 2026-05-05 09:52 | 32.42113 | -16.80991 | 3021 ft | 224 kts | 109° |
| 2026-05-05 09:52 | 32.42079 | -16.79148 | 3023 ft | 231 kts | 74° |
| 2026-05-05 09:52 | 32.42884 | -16.77524 | 3015 ft | 226 kts | 45° |
| 2026-05-05 09:53 | 32.44185 | -16.76540 | 3015 ft | 221 kts | 16° |
| 2026-05-05 09:53 | 32.45702 | -16.76357 | 2909 ft | 220 kts | 350° |
| 2026-05-05 09:53 | 32.47181 | -16.76675 | 2774 ft | 214 kts | 347° |
| 2026-05-05 09:53 | 32.48636 | -16.76992 | 2730 ft | 213 kts | 348° |
| 2026-05-05 09:54 | 32.50092 | -16.77307 | 2697 ft | 211 kts | 347° |
| 2026-05-05 09:54 | 32.51527 | -16.77612 | 2665 ft | 210 kts | 347° |
| 2026-05-05 09:54 | 32.53001 | -16.77918 | 2616 ft | 220 kts | 350° |
| 2026-05-05 09:54 | 32.54512 | -16.78243 | 2566 ft | 221 kts | 351° |
| 2026-05-05 09:55 | 32.55999 | -16.78567 | 2481 ft | 212 kts | 351° |
| 2026-05-05 09:55 | 32.57441 | -16.78880 | 2407 ft | 209 kts | 352° |
| 2026-05-05 09:55 | 32.58817 | -16.79175 | 2217 ft | 193 kts | 352° |
| 2026-05-05 09:55 | 32.60078 | -16.79450 | 1984 ft | 176 kts | 351° |
| 2026-05-05 09:56 | 32.61226 | -16.79700 | 1779 ft | 160 kts | 352° |
| 2026-05-05 09:56 | 32.62286 | -16.79928 | 1573 ft | 152 kts | 352° |
| 2026-05-05 09:56 | 32.62969 | -16.80074 | 1450 ft | 149 kts | 354° |
| 2026-05-05 09:56 | 32.63979 | -16.80290 | 1267 ft | 147 kts | 353° |
| 2026-05-05 09:57 | 32.64977 | -16.80346 | 1095 ft | 142 kts | 4° |
| 2026-05-05 09:57 | 32.65943 | -16.80322 | 877 ft | 136 kts | 5° |
| 2026-05-05 09:57 | 32.66874 | -16.80205 | 685 ft | 132 kts | 12° |
| 2026-05-05 09:57 | 32.67713 | -16.79784 | 524 ft | 131 kts | 32° |
| 2026-05-05 09:58 | 32.68394 | -16.79086 | 358 ft | 129 kts | 44° |
| 2026-05-05 09:58 | 32.69027 | -16.78343 | 197 ft | 128 kts | 43° |
| 2026-05-05 09:58 | 32.69587 | -16.77686 | 176 ft | 90 kts | 45° |
| 2026-05-05 09:58 | 32.69892 | -16.77328 | 176 ft | 23 kts | 44° |
| 2026-05-05 09:59 | 32.69955 | -16.77212 | 176 ft | 14 kts | 111° |
| 2026-05-05 09:59 | 32.69876 | -16.77177 | 176 ft | 12 kts | 182° |
| 2026-05-05 09:59 | 32.69808 | -16.77216 | 176 ft | 10 kts | 221° |
| 2026-05-05 09:59 | 32.69762 | -16.77273 | 176 ft | 9 kts | 226° |
| 2026-05-05 10:00 | 32.69711 | -16.77334 | 176 ft | 14 kts | 225° |
| 2026-05-05 10:00 | 32.69637 | -16.77427 | 176 ft | 15 kts | 227° |
| 2026-05-05 10:00 | 32.69568 | -16.77514 | 176 ft | 14 kts | 225° |
| 2026-05-05 10:00 | 32.69504 | -16.77593 | 176 ft | 13 kts | 226° |
| 2026-05-05 10:01 | 32.69462 | -16.77636 | 176 ft | 5 kts | 192° |
| 2026-05-05 10:01 | 32.69435 | -16.77618 | 176 ft | 6 kts | 140° |
| 2026-05-05 10:01 | 32.69411 | -16.77592 | 176 ft | 4 kts | 137° |
| 2026-05-05 10:01 | 32.69408 | -16.77589 | 176 ft | 0 kts | 137° |